createdAt,value
2022-12-18T00:01:07.032Z,25.40
2022-12-18T00:03:09.441Z,26.15
2022-12-18T00:05:12.097Z,25.00
2022-12-18T00:07:14.275Z,24.33
2022-12-18T00:09:16.730Z,25.20
2022-12-18T00:13:20.932Z,23.55
2022-12-18T00:15:23.053Z,24.98
2022-12-18T00:17:25.381Z,23.80
2022-12-18T00:19:27.517Z,23.77
2022-12-18T00:21:30.374Z,23.40
2022-12-18T00:23:33.035Z,23.63
2022-12-18T00:25:36.002Z,23.88
2022-12-18T00:27:38.120Z,24.63
2022-12-18T00:29:43.119Z,21.83
2022-12-18T00:31:45.579Z,22.38
2022-12-18T00:33:48.043Z,23.10
2022-12-18T00:35:52.196Z,24.27
2022-12-18T00:37:54.315Z,23.20
2022-12-18T00:39:56.481Z,22.95
2022-12-18T00:42:17.441Z,23.73
2022-12-18T00:44:20.089Z,23.00
2022-12-18T00:46:22.256Z,22.98
2022-12-18T00:48:24.654Z,23.90
2022-12-18T00:52:28.871Z,22.67
2022-12-18T00:54:31.080Z,22.92
2022-12-18T00:56:33.278Z,22.95
2022-12-18T00:58:38.448Z,23.02
2022-12-18T01:00:40.647Z,22.95
2022-12-18T01:02:43.333Z,24.75
2022-12-18T01:04:45.591Z,24.10
2022-12-18T01:06:47.705Z,24.73
2022-12-18T01:08:49.817Z,23.45
2022-12-18T01:10:51.953Z,24.38
2022-12-18T01:12:54.123Z,23.95
2022-12-18T01:14:56.268Z,24.10
2022-12-18T01:16:58.433Z,25.25
2022-12-18T01:19:00.749Z,25.80
2022-12-18T01:21:06.852Z,25.33
2022-12-18T01:23:08.984Z,26.70
2022-12-18T01:25:11.250Z,26.27
2022-12-18T01:27:13.414Z,27.80
2022-12-18T01:29:15.621Z,25.55
2022-12-18T01:31:28.372Z,25.33
2022-12-18T01:33:30.562Z,26.73
2022-12-18T01:35:33.022Z,25.30
2022-12-18T01:39:37.208Z,25.93
2022-12-18T01:41:58.122Z,25.55
2022-12-18T01:44:00.306Z,26.23
2022-12-18T01:46:02.503Z,26.35
2022-12-18T01:48:07.454Z,28.77
2022-12-18T01:50:15.725Z,26.90
2022-12-18T01:52:18.548Z,27.65
2022-12-18T01:54:20.682Z,25.88
2022-12-18T01:56:23.070Z,27.77
2022-12-18T02:00:27.849Z,19.83
2022-12-18T02:02:30.871Z,28.67
2022-12-18T02:04:33.080Z,27.33
2022-12-18T02:06:38.227Z,28.33
2022-12-18T02:08:58.986Z,30.15
2022-12-18T02:11:04.079Z,28.25
2022-12-18T02:13:25.842Z,26.42
2022-12-18T02:15:40.964Z,28.23
2022-12-18T02:17:49.523Z,28.02
2022-12-18T02:19:57.743Z,26.40
2022-12-18T02:22:11.730Z,28.25
2022-12-18T02:24:31.263Z,28.52
2022-12-18T02:26:33.389Z,28.33
2022-12-18T02:28:37.762Z,27.25
2022-12-18T02:30:41.237Z,28.15
2022-12-18T02:32:46.635Z,29.45
2022-12-18T02:34:49.916Z,28.73
2022-12-18T02:36:53.268Z,28.90
2022-12-18T02:38:56.157Z,26.10
2022-12-18T02:40:58.620Z,29.52
2022-12-18T02:43:13.824Z,27.58
2022-12-18T02:45:15.939Z,27.63
2022-12-18T02:47:19.557Z,28.33
2022-12-18T02:49:21.665Z,30.15
2022-12-18T02:51:27.228Z,27.83
2022-12-18T02:53:33.227Z,28.35
2022-12-18T02:55:35.397Z,26.90
2022-12-18T02:57:49.794Z,28.48
2022-12-18T02:59:57.889Z,27.95
2022-12-18T03:02:06.574Z,29.10
2022-12-18T03:04:15.316Z,26.15
2022-12-18T03:06:23.932Z,28.42
2022-12-18T03:08:27.929Z,27.05
2022-12-18T03:10:31.535Z,27.42
2022-12-18T03:12:36.213Z,28.70
2022-12-18T03:14:39.738Z,27.63
2022-12-18T03:16:42.798Z,28.42
2022-12-18T03:18:49.891Z,27.23
2022-12-18T03:20:53.996Z,27.90
2022-12-18T03:22:59.254Z,30.27
2022-12-18T03:25:03.009Z,28.40
2022-12-18T03:27:07.088Z,29.42
2022-12-18T03:29:13.466Z,27.80
2022-12-18T03:31:15.989Z,28.23
2022-12-18T03:33:20.986Z,29.45
2022-12-18T03:35:24.624Z,27.70
2022-12-18T03:37:26.789Z,28.67
2022-12-18T03:39:28.944Z,28.83
2022-12-18T03:41:35.546Z,26.95
2022-12-18T03:43:56.781Z,26.35
2022-12-18T03:46:09.537Z,27.48
2022-12-18T03:48:14.740Z,26.65
2022-12-18T03:50:20.250Z,27.73
2022-12-18T03:52:27.474Z,26.25
2022-12-18T03:54:30.205Z,28.92
2022-12-18T03:56:34.052Z,27.52
2022-12-18T03:58:36.845Z,26.42
2022-12-18T04:00:39.166Z,27.77
2022-12-18T04:02:44.727Z,28.63
2022-12-18T04:04:49.009Z,26.48
2022-12-18T04:06:51.397Z,27.13
2022-12-18T04:10:55.701Z,27.23
2022-12-18T04:12:58.337Z,25.05
2022-12-18T04:15:00.527Z,23.75
2022-12-18T04:17:03.536Z,24.75
2022-12-18T04:19:06.318Z,25.77
2022-12-18T04:21:08.537Z,24.92
2022-12-18T04:23:10.652Z,24.70
2022-12-18T04:25:12.774Z,25.20
2022-12-18T04:27:15.034Z,23.58
2022-12-18T04:29:17.206Z,24.80
2022-12-18T04:31:19.423Z,25.13
2022-12-18T04:33:21.665Z,24.95
2022-12-18T04:35:23.794Z,24.40
2022-12-18T04:37:25.930Z,22.60
2022-12-18T04:39:28.022Z,23.40
2022-12-18T04:41:30.184Z,24.10
2022-12-18T04:43:33.878Z,23.83
2022-12-18T04:45:36.064Z,23.02
2022-12-18T04:47:38.265Z,23.33
2022-12-18T04:49:40.430Z,23.67
2022-12-18T04:51:42.536Z,24.83
2022-12-18T04:53:44.667Z,24.58
2022-12-18T04:55:46.769Z,24.15
2022-12-18T04:57:48.865Z,25.08
2022-12-18T04:59:51.110Z,23.63
2022-12-18T05:01:53.347Z,23.77
2022-12-18T05:03:55.544Z,23.83
2022-12-18T05:05:57.774Z,22.02
2022-12-18T05:07:59.911Z,23.30
2022-12-18T05:10:02.023Z,22.17
2022-12-18T05:12:04.212Z,23.52
2022-12-18T05:14:06.328Z,21.48
2022-12-18T05:16:08.677Z,23.40
2022-12-18T05:20:12.948Z,21.53
2022-12-18T05:22:15.071Z,22.50
2022-12-18T05:24:17.294Z,24.25
2022-12-18T05:26:20.049Z,23.38
2022-12-18T05:28:22.925Z,22.88
2022-12-18T05:30:25.045Z,23.70
2022-12-18T05:32:27.188Z,23.45
2022-12-18T05:34:29.412Z,21.73
2022-12-18T05:36:31.577Z,22.50
2022-12-18T05:38:34.735Z,22.83
2022-12-18T05:40:37.703Z,23.52
2022-12-18T05:42:39.852Z,22.70
2022-12-18T05:44:42.087Z,22.02
2022-12-18T05:46:44.386Z,20.80
2022-12-18T05:48:46.932Z,22.23
2022-12-18T05:50:49.746Z,22.92
2022-12-18T05:52:52.012Z,23.70
2022-12-18T05:54:54.142Z,24.35
2022-12-18T05:56:56.278Z,22.17
2022-12-18T05:58:58.412Z,22.08
2022-12-18T06:01:07.809Z,22.30
2022-12-18T06:03:11.466Z,21.27
2022-12-18T06:05:13.734Z,22.17
2022-12-18T06:07:15.873Z,23.30
2022-12-18T06:09:17.967Z,21.75
2022-12-18T06:11:21.666Z,22.60
2022-12-18T06:13:24.365Z,21.63
2022-12-18T06:15:26.491Z,23.40
2022-12-18T06:17:32.305Z,22.83
2022-12-18T06:19:34.427Z,22.95
2022-12-18T06:21:36.531Z,21.88
2022-12-18T06:23:39.233Z,21.92
2022-12-18T06:25:41.684Z,22.80
2022-12-18T06:27:43.874Z,22.40
2022-12-18T06:29:46.625Z,22.50
2022-12-18T06:31:48.875Z,22.92
2022-12-18T06:33:51.275Z,22.58
2022-12-18T06:37:59.988Z,20.73
2022-12-18T06:40:02.069Z,21.98
2022-12-18T06:42:04.961Z,22.80
2022-12-18T06:44:07.653Z,23.02
2022-12-18T06:46:10.012Z,23.10
2022-12-18T06:50:14.774Z,20.93
2022-12-18T06:52:19.850Z,22.52
2022-12-18T06:54:22.095Z,21.67
2022-12-18T06:56:24.665Z,21.52
2022-12-18T06:58:26.824Z,23.50
2022-12-18T07:00:28.950Z,22.65
2022-12-18T07:02:31.143Z,21.55
2022-12-18T07:04:33.600Z,22.38
2022-12-18T07:08:37.761Z,22.27
2022-12-18T07:10:47.503Z,19.98
2022-12-18T07:12:50.411Z,21.75
2022-12-18T07:14:52.553Z,22.98
2022-12-18T07:16:54.783Z,21.58
2022-12-18T07:18:57.565Z,20.83
2022-12-18T07:20:59.692Z,20.88
2022-12-18T07:23:03.666Z,20.80
2022-12-18T07:25:06.051Z,22.67
2022-12-18T07:29:10.177Z,19.27
2022-12-18T07:31:15.769Z,21.38
2022-12-18T07:33:18.023Z,22.63
2022-12-18T07:35:24.718Z,20.27
2022-12-18T07:37:27.478Z,22.27
2022-12-18T07:39:29.650Z,20.95
2022-12-18T07:41:31.949Z,21.73
2022-12-18T07:43:34.657Z,20.42
2022-12-18T07:45:37.301Z,23.98
2022-12-18T07:47:39.616Z,25.65
2022-12-18T07:49:41.720Z,21.95
2022-12-18T07:51:43.838Z,22.98
2022-12-18T07:53:46.001Z,23.55
2022-12-18T07:56:18.404Z,24.63
2022-12-18T07:58:10.535Z,21.25
2022-12-18T08:02:14.843Z,20.48
2022-12-18T08:06:19.247Z,19.30
2022-12-18T08:08:23.487Z,20.00
2022-12-18T08:10:25.658Z,18.73
2022-12-18T08:12:27.816Z,19.88
2022-12-18T08:14:29.992Z,21.02
2022-12-18T08:16:32.189Z,20.80
2022-12-18T08:18:34.880Z,19.75
2022-12-18T08:20:37.027Z,17.90
2022-12-18T08:22:39.878Z,19.83
2022-12-18T08:24:42.035Z,18.75
2022-12-18T08:27:00.889Z,19.50
2022-12-18T08:29:06.392Z,18.85
2022-12-18T08:31:09.128Z,19.63
2022-12-18T08:33:11.690Z,18.27
2022-12-18T08:35:16.450Z,19.50
2022-12-18T08:37:20.856Z,19.02
2022-12-18T08:39:22.991Z,19.98
2022-12-18T08:41:25.286Z,20.13
2022-12-18T08:43:46.505Z,19.98
2022-12-18T08:45:48.712Z,16.95
2022-12-18T08:47:50.969Z,20.63
2022-12-18T08:49:53.220Z,19.55
2022-12-18T08:51:58.050Z,20.63
2022-12-18T08:54:00.229Z,18.83
2022-12-18T08:56:02.399Z,18.98
2022-12-18T08:58:04.544Z,19.42
2022-12-18T09:00:07.007Z,17.90
2022-12-18T09:04:11.759Z,17.55
2022-12-18T09:08:15.997Z,18.35
2022-12-18T09:10:18.247Z,18.85
2022-12-18T09:12:21.276Z,18.90
2022-12-18T09:14:23.457Z,18.40
2022-12-18T09:16:31.748Z,18.38
2022-12-18T09:18:34.615Z,19.00
2022-12-18T09:20:37.593Z,20.50
2022-12-18T09:22:39.800Z,19.58
2022-12-18T09:24:41.951Z,19.45
2022-12-18T09:26:46.917Z,19.13
2022-12-18T09:28:49.992Z,18.58
2022-12-18T09:32:57.406Z,18.33
2022-12-18T09:34:59.750Z,17.88
2022-12-18T09:39:08.270Z,17.55
2022-12-18T09:41:30.233Z,18.40
2022-12-18T09:43:38.937Z,17.75
2022-12-18T09:45:44.566Z,16.42
2022-12-18T09:47:47.924Z,18.48
2022-12-18T09:49:55.683Z,17.70
2022-12-18T09:51:57.902Z,17.63
2022-12-18T09:54:08.423Z,19.48
2022-12-18T09:56:14.007Z,17.95
2022-12-18T09:58:33.817Z,18.98
2022-12-18T10:00:36.394Z,17.63
2022-12-18T10:02:38.903Z,17.65
2022-12-18T10:04:41.241Z,16.45
2022-12-18T10:06:49.678Z,19.05
2022-12-18T10:09:04.373Z,18.45
2022-12-18T10:11:25.011Z,17.75
2022-12-18T10:13:35.029Z,17.63
2022-12-18T10:15:37.223Z,18.33
2022-12-18T10:17:59.627Z,18.70
2022-12-18T10:20:04.274Z,20.23
2022-12-18T10:22:17.928Z,19.08
2022-12-18T10:24:28.172Z,17.00
2022-12-18T10:26:30.348Z,17.63
2022-12-18T10:28:33.594Z,19.05
2022-12-18T10:30:35.756Z,17.25
2022-12-18T10:32:37.869Z,17.08
2022-12-18T10:34:41.289Z,17.88
2022-12-18T10:36:44.207Z,18.48
2022-12-18T10:38:46.378Z,17.90
2022-12-18T10:40:59.073Z,18.75
2022-12-18T10:45:07.538Z,17.03
2022-12-18T10:47:13.928Z,17.42
2022-12-18T10:49:41.970Z,16.65
2022-12-18T10:51:44.249Z,16.73
2022-12-18T10:53:53.296Z,16.17
2022-12-18T10:55:56.868Z,17.80
2022-12-18T10:58:14.741Z,17.42
2022-12-18T11:00:28.616Z,16.50
2022-12-18T11:02:37.536Z,16.00
2022-12-18T11:04:51.179Z,17.33
2022-12-18T11:06:58.217Z,16.20
2022-12-18T11:09:13.330Z,16.60
2022-12-18T11:11:26.550Z,15.43
2022-12-18T11:13:30.883Z,16.52
2022-12-18T11:15:33.060Z,17.67
2022-12-18T11:17:37.451Z,17.20
2022-12-18T11:19:40.830Z,16.13
2022-12-18T11:21:43.780Z,16.65
2022-12-18T11:23:51.312Z,17.08
2022-12-18T11:25:55.512Z,15.93
2022-12-18T11:28:02.343Z,16.58
2022-12-18T11:30:11.675Z,16.45
2022-12-18T11:32:16.554Z,15.85
2022-12-18T11:34:29.952Z,15.93
2022-12-18T11:36:38.247Z,17.23
2022-12-18T11:38:44.820Z,16.42
2022-12-18T11:40:49.959Z,17.10
2022-12-18T11:42:55.596Z,14.88
2022-12-18T11:45:04.141Z,15.88
2022-12-18T11:47:15.317Z,15.45
2022-12-18T11:49:24.209Z,14.10
2022-12-18T11:51:36.235Z,17.98
2022-12-18T11:53:39.498Z,16.55
2022-12-18T11:56:00.546Z,17.10
2022-12-18T11:58:11.989Z,35.05
2022-12-18T12:00:21.699Z,18.27
2022-12-18T12:02:30.075Z,23.75
2022-12-18T12:04:47.748Z,17.63
2022-12-18T12:07:08.485Z,19.67
2022-12-18T12:09:10.635Z,17.80
2022-12-18T12:11:12.744Z,18.20
2022-12-18T12:13:23.956Z,17.25
2022-12-18T12:15:33.527Z,18.38
2022-12-18T12:17:49.313Z,17.45
2022-12-18T12:20:03.440Z,18.02
2022-12-18T12:22:10.691Z,16.52
2022-12-18T12:24:15.709Z,16.83
2022-12-18T12:26:43.124Z,16.70
2022-12-18T12:28:48.324Z,17.63
2022-12-18T12:30:57.332Z,17.55
2022-12-18T12:33:00.991Z,18.23
2022-12-18T12:35:11.779Z,18.25
2022-12-18T12:37:13.922Z,17.65
2022-12-18T12:39:19.573Z,16.95
2022-12-18T12:41:42.707Z,17.27
2022-12-18T12:46:14.370Z,17.13
2022-12-18T12:48:22.489Z,19.70
2022-12-18T12:50:25.256Z,18.10
2022-12-18T12:52:54.006Z,17.63
2022-12-18T12:54:57.107Z,17.95
2022-12-18T12:57:08.550Z,17.95
2022-12-18T12:59:18.172Z,16.88
2022-12-18T13:01:24.149Z,16.92
2022-12-18T13:03:29.346Z,18.15
2022-12-18T13:05:36.325Z,19.90
2022-12-18T13:07:49.579Z,19.52
2022-12-18T13:10:10.242Z,17.95
2022-12-18T13:12:34.987Z,18.48
2022-12-18T13:13:43.218Z,18.60
2022-12-18T13:14:38.935Z,18.10
2022-12-18T13:16:41.160Z,21.55
2022-12-18T13:18:49.920Z,18.15
2022-12-18T13:21:02.892Z,19.52
2022-12-18T13:23:28.962Z,18.08
2022-12-18T13:25:40.204Z,18.13
2022-12-18T13:27:42.302Z,18.17
2022-12-18T13:29:46.331Z,17.65
2022-12-18T13:31:49.064Z,17.75
2022-12-18T13:34:24.706Z,17.23
2022-12-18T13:36:28.442Z,17.80
2022-12-18T13:38:33.286Z,16.77
2022-12-18T13:40:42.253Z,18.52
2022-12-18T13:43:03.265Z,18.98
2022-12-18T13:45:25.392Z,16.90
2022-12-18T13:47:32.315Z,17.50
2022-12-18T13:49:34.427Z,17.35
2022-12-18T13:51:37.432Z,18.42
2022-12-18T13:53:58.316Z,17.60
2022-12-18T13:56:00.900Z,17.02
2022-12-18T13:58:06.541Z,18.10
2022-12-18T14:00:19.068Z,17.02
2022-12-18T14:02:25.630Z,19.45
2022-12-18T14:04:29.469Z,18.45
2022-12-18T14:06:31.748Z,18.27
2022-12-18T14:08:37.244Z,17.95
2022-12-18T14:10:49.306Z,18.17
2022-12-18T14:13:03.108Z,18.10
2022-12-18T14:15:06.162Z,17.55
2022-12-18T14:17:11.401Z,18.13
2022-12-18T14:19:16.015Z,18.17
2022-12-18T14:21:24.440Z,18.10
2022-12-18T14:23:36.865Z,17.65
2022-12-18T14:25:39.092Z,18.63
2022-12-18T14:27:48.716Z,18.45
2022-12-18T14:29:51.286Z,18.80
2022-12-18T14:32:07.659Z,17.30
2022-12-18T14:34:20.223Z,17.88
2022-12-18T14:36:26.426Z,16.75
2022-12-18T14:38:30.003Z,18.73
2022-12-18T14:40:32.159Z,18.30
2022-12-18T14:42:34.854Z,17.52
2022-12-18T14:44:50.626Z,18.60
2022-12-18T14:46:59.167Z,19.00
2022-12-18T14:49:02.718Z,18.35
2022-12-18T14:51:43.577Z,17.48
2022-12-18T14:54:11.504Z,16.60
2022-12-18T14:56:18.462Z,16.83
2022-12-18T14:58:20.665Z,16.15
2022-12-18T15:00:24.278Z,17.70
2022-12-18T15:02:30.334Z,17.08
2022-12-18T15:04:44.781Z,17.08
2022-12-18T15:06:47.448Z,17.10
2022-12-18T15:08:49.597Z,16.75
2022-12-18T15:10:51.951Z,17.33
2022-12-18T15:14:56.328Z,17.60
2022-12-18T15:16:59.698Z,17.35
2022-12-18T15:19:02.620Z,16.13
2022-12-18T15:21:11.898Z,18.15
2022-12-18T15:23:24.243Z,18.90
2022-12-18T15:25:33.661Z,18.10
2022-12-18T15:27:38.627Z,17.30
2022-12-18T15:29:40.774Z,17.65
2022-12-18T15:31:42.934Z,17.08
2022-12-18T15:33:47.136Z,17.88
2022-12-18T15:35:57.309Z,18.80
2022-12-18T15:37:59.448Z,17.60
2022-12-18T15:40:03.160Z,19.45
2022-12-18T15:42:28.589Z,19.17
2022-12-18T15:44:30.846Z,17.50
2022-12-18T15:46:33.071Z,19.00
2022-12-18T15:48:41.452Z,20.50
2022-12-18T15:50:43.602Z,19.65
2022-12-18T15:52:47.319Z,19.70
2022-12-18T15:55:08.487Z,19.25
2022-12-18T15:57:26.041Z,18.52
2022-12-18T15:59:28.242Z,19.15
2022-12-18T16:01:32.411Z,19.75
2022-12-18T16:03:34.910Z,19.92
2022-12-18T16:07:39.126Z,20.23
2022-12-18T16:09:41.400Z,20.83
2022-12-18T16:11:46.764Z,18.85
2022-12-18T16:13:48.922Z,20.35
2022-12-18T16:15:51.634Z,19.63
2022-12-18T16:19:56.249Z,20.05
2022-12-18T16:21:59.338Z,19.60
2022-12-18T16:24:01.492Z,20.48
2022-12-18T16:26:05.621Z,18.90
2022-12-18T16:28:07.771Z,18.13
2022-12-18T16:30:14.072Z,19.98
2022-12-18T16:32:17.768Z,17.48
2022-12-18T16:34:26.759Z,18.73
2022-12-18T16:36:30.828Z,17.92
2022-12-18T16:40:55.270Z,19.65
2022-12-18T16:42:57.409Z,19.05
2022-12-18T16:44:59.609Z,19.63
2022-12-18T16:47:03.202Z,20.20
2022-12-18T16:49:05.585Z,18.73
2022-12-18T16:51:07.741Z,21.30
2022-12-18T16:53:09.923Z,22.20
2022-12-18T16:55:12.550Z,23.38
2022-12-18T16:57:15.737Z,24.45
2022-12-18T16:59:18.019Z,24.38
2022-12-18T17:01:20.363Z,23.10
2022-12-18T17:05:24.739Z,20.75
2022-12-18T17:07:28.288Z,19.08
2022-12-18T17:09:30.924Z,20.88
2022-12-18T17:11:34.133Z,21.52
2022-12-18T17:13:36.326Z,21.15
2022-12-18T17:15:38.551Z,22.02
2022-12-18T17:17:40.710Z,20.88
2022-12-18T17:19:43.139Z,22.10
2022-12-18T17:21:46.180Z,21.00
2022-12-18T17:23:48.535Z,19.88
2022-12-18T17:27:53.099Z,20.77
2022-12-18T17:29:55.787Z,22.55
2022-12-18T17:31:58.734Z,20.40
2022-12-18T17:34:03.350Z,22.13
2022-12-18T17:36:05.743Z,22.10
2022-12-18T17:40:11.414Z,21.23
2022-12-18T17:44:18.406Z,21.50
2022-12-18T17:46:20.984Z,23.10
2022-12-18T17:48:23.489Z,22.58
2022-12-18T17:50:26.559Z,24.00
2022-12-18T17:52:28.892Z,23.08
2022-12-18T17:56:33.114Z,21.93
2022-12-18T17:58:37.734Z,21.75
2022-12-18T18:00:41.097Z,22.73
2022-12-18T18:02:43.422Z,21.48
2022-12-18T18:06:47.956Z,20.48
2022-12-18T18:08:50.169Z,22.27
2022-12-18T18:13:13.447Z,20.47
2022-12-18T18:15:16.088Z,20.08
2022-12-18T18:17:18.270Z,22.98
2022-12-18T18:19:22.541Z,23.02
2022-12-18T18:21:24.815Z,22.08
2022-12-18T18:23:28.764Z,22.52
2022-12-18T18:25:30.892Z,21.40
2022-12-18T18:27:38.354Z,21.00
2022-12-18T18:29:41.070Z,21.52
2022-12-18T18:33:45.496Z,21.13
2022-12-18T18:35:55.057Z,21.00
2022-12-18T18:37:57.518Z,21.42
2022-12-18T18:42:01.874Z,20.73
2022-12-18T18:44:04.318Z,20.73
2022-12-18T18:46:06.898Z,21.15
2022-12-18T18:48:09.294Z,19.58
2022-12-18T18:52:15.433Z,20.20
2022-12-18T18:54:17.631Z,21.08
2022-12-18T18:58:47.108Z,19.80
2022-12-18T19:02:53.071Z,20.42
2022-12-18T19:04:58.568Z,21.02
2022-12-18T19:07:00.761Z,21.92
2022-12-18T19:09:04.350Z,20.98
2022-12-18T19:11:31.822Z,20.75
2022-12-18T19:13:38.304Z,21.30
2022-12-18T19:15:40.806Z,21.35
2022-12-18T19:19:45.380Z,20.17
2022-12-18T19:21:48.141Z,21.65
2022-12-18T19:23:50.346Z,22.63
2022-12-18T19:25:59.533Z,22.48
2022-12-18T19:28:21.844Z,21.92
2022-12-18T19:30:24.653Z,21.90
2022-12-18T19:32:26.876Z,21.20
2022-12-18T19:34:29.081Z,22.60
2022-12-18T19:36:31.818Z,20.95
2022-12-18T19:38:34.088Z,21.60
2022-12-18T19:40:36.230Z,20.67
2022-12-18T19:42:41.545Z,21.30
2022-12-18T19:44:43.673Z,21.55
2022-12-18T19:46:46.384Z,21.17
2022-12-18T19:48:49.297Z,22.38
2022-12-18T19:50:51.441Z,22.48
2022-12-18T19:52:53.654Z,23.17
2022-12-18T19:54:55.911Z,23.52
2022-12-18T19:56:58.204Z,23.60
2022-12-18T20:01:02.667Z,22.60
2022-12-18T20:03:17.687Z,21.88
2022-12-18T20:05:25.584Z,22.75
2022-12-18T20:07:27.753Z,22.55
2022-12-18T20:11:32.881Z,21.73
2022-12-18T20:13:35.132Z,20.88
2022-12-18T20:15:40.514Z,22.00
2022-12-18T20:17:47.161Z,22.48
2022-12-18T20:21:51.526Z,21.33
2022-12-18T20:23:55.785Z,22.42
2022-12-18T20:25:58.043Z,20.67
2022-12-18T20:28:00.270Z,22.35
2022-12-18T20:30:02.448Z,23.48
2022-12-18T20:32:04.778Z,22.02
2022-12-18T20:34:07.242Z,21.33
2022-12-18T20:36:15.372Z,24.33
2022-12-18T20:38:18.565Z,22.42
2022-12-18T20:40:23.399Z,22.25
2022-12-18T20:42:25.534Z,22.48
2022-12-18T20:44:27.746Z,22.60
2022-12-18T20:46:29.905Z,22.33
2022-12-18T20:48:32.733Z,23.80
2022-12-18T20:50:34.864Z,22.00
2022-12-18T20:52:37.020Z,23.02
2022-12-18T20:54:39.186Z,23.40
2022-12-18T20:56:41.352Z,24.02
2022-12-18T20:58:43.513Z,23.30
2022-12-18T21:00:45.664Z,22.75
2022-12-18T21:02:47.937Z,23.60
2022-12-18T21:04:50.224Z,23.98
2022-12-18T21:06:55.827Z,23.17
2022-12-18T21:09:02.765Z,21.85
2022-12-18T21:11:35.601Z,24.38
2022-12-18T21:13:37.744Z,22.60
2022-12-18T21:17:45.060Z,22.77
2022-12-18T21:19:47.675Z,23.33
2022-12-18T21:21:51.828Z,23.15
2022-12-18T21:23:54.081Z,23.88
2022-12-18T21:26:15.042Z,22.75
2022-12-18T21:28:17.194Z,23.85
2022-12-18T21:30:19.714Z,23.63
2022-12-18T21:32:21.926Z,24.17
2022-12-18T21:34:28.583Z,23.83
2022-12-18T21:36:30.976Z,24.67
2022-12-18T21:40:35.137Z,22.38
2022-12-18T21:42:57.317Z,23.63
2022-12-18T21:44:59.468Z,24.08
2022-12-18T21:47:10.853Z,24.30
2022-12-18T21:49:22.913Z,24.90
2022-12-18T21:51:25.056Z,22.33
2022-12-18T21:53:27.212Z,23.92
2022-12-18T21:55:29.815Z,23.65
2022-12-18T21:57:32.040Z,23.52
2022-12-18T21:59:42.342Z,21.65
2022-12-18T22:01:44.743Z,23.30
2022-12-18T22:03:47.058Z,23.85
2022-12-18T22:07:58.321Z,23.52
2022-12-18T22:10:01.201Z,23.75
2022-12-18T22:12:04.886Z,23.95
2022-12-18T22:14:07.359Z,24.42
2022-12-18T22:16:09.623Z,24.05
2022-12-18T22:20:13.772Z,24.67
2022-12-18T22:22:15.936Z,23.55
2022-12-18T22:24:22.151Z,24.42
2022-12-18T22:26:25.140Z,22.35
2022-12-18T22:28:46.140Z,24.63
2022-12-18T22:30:48.358Z,22.17
2022-12-18T22:32:52.710Z,23.15
2022-12-18T22:34:55.201Z,23.80
2022-12-18T22:36:57.373Z,25.15
2022-12-18T22:38:59.503Z,25.02
2022-12-18T22:41:01.625Z,25.10
2022-12-18T22:43:03.809Z,27.05
2022-12-18T22:45:06.190Z,25.73
2022-12-18T22:49:13.314Z,25.35
2022-12-18T22:51:16.425Z,25.98
2022-12-18T22:53:18.700Z,24.90
2022-12-18T22:55:20.848Z,26.58
2022-12-18T22:57:23.406Z,25.23
2022-12-18T22:59:25.601Z,24.17
2022-12-18T23:01:28.831Z,27.25
2022-12-18T23:03:32.516Z,24.73
2022-12-18T23:05:34.768Z,24.92
2022-12-18T23:07:36.902Z,23.40
2022-12-18T23:09:39.086Z,24.02
2022-12-18T23:11:41.237Z,24.35
2022-12-18T23:13:43.663Z,24.85
2022-12-18T23:15:45.823Z,22.88
2022-12-18T23:17:48.060Z,24.35
2022-12-18T23:19:50.216Z,23.50
2022-12-18T23:21:52.532Z,22.00
2022-12-18T23:23:57.206Z,23.15
2022-12-18T23:28:01.358Z,24.63
2022-12-18T23:30:03.506Z,23.75
2022-12-18T23:32:05.673Z,25.27
2022-12-18T23:34:08.096Z,24.88
2022-12-18T23:38:12.244Z,21.02
2022-12-18T23:40:14.546Z,23.50
2022-12-18T23:44:18.734Z,23.47
2022-12-18T23:46:22.779Z,23.05
2022-12-18T23:48:24.904Z,21.98
2022-12-18T23:50:29.315Z,23.92
2022-12-18T23:52:31.995Z,24.50
2022-12-18T23:54:34.100Z,23.90
2022-12-18T23:56:36.254Z,24.30
2022-12-18T23:58:38.477Z,24.50
